sensor_id;sensor_type;location;lat;lon;timestamp;temperature;humidity
3850;DHT22;1940;51.052;13.678;2023-04-03T00:01:19;3.70;76.00
3850;DHT22;1940;51.052;13.678;2023-04-03T00:03:44;3.70;75.70
3850;DHT22;1940;51.052;13.678;2023-04-03T00:06:10;3.70;75.90
3850;DHT22;1940;51.052;13.678;2023-04-03T00:08:37;3.60;75.60
3850;DHT22;1940;51.052;13.678;2023-04-03T00:11:04;3.60;76.00
3850;DHT22;1940;51.052;13.678;2023-04-03T00:13:30;3.70;76.00
3850;DHT22;1940;51.052;13.678;2023-04-03T00:15:56;3.70;76.30
3850;DHT22;1940;51.052;13.678;2023-04-03T00:18:22;3.70;76.20
3850;DHT22;1940;51.052;13.678;2023-04-03T00:20:48;3.60;75.80
3850;DHT22;1940;51.052;13.678;2023-04-03T00:23:14;3.60;75.80
3850;DHT22;1940;51.052;13.678;2023-04-03T00:25:40;3.50;75.70
3850;DHT22;1940;51.052;13.678;2023-04-03T00:28:06;3.50;75.70
3850;DHT22;1940;51.052;13.678;2023-04-03T00:30:31;3.50;76.10
3850;DHT22;1940;51.052;13.678;2023-04-03T00:32:57;3.50;75.60
3850;DHT22;1940;51.052;13.678;2023-04-03T00:35:24;3.40;75.30
3850;DHT22;1940;51.052;13.678;2023-04-03T00:37:53;3.40;75.70
3850;DHT22;1940;51.052;13.678;2023-04-03T00:40:21;3.40;76.00
3850;DHT22;1940;51.052;13.678;2023-04-03T00:42:48;3.30;75.90
3850;DHT22;1940;51.052;13.678;2023-04-03T00:47:55;3.20;76.00
3850;DHT22;1940;51.052;13.678;2023-04-03T00:50:21;3.10;76.10
3850;DHT22;1940;51.052;13.678;2023-04-03T00:52:48;3.10;76.50
3850;DHT22;1940;51.052;13.678;2023-04-03T00:55:14;3.10;77.20
3850;DHT22;1940;51.052;13.678;2023-04-03T00:57:41;3.10;76.80
3850;DHT22;1940;51.052;13.678;2023-04-03T01:00:10;3.10;76.10
3850;DHT22;1940;51.052;13.678;2023-04-03T01:02:36;3.10;75.80
3850;DHT22;1940;51.052;13.678;2023-04-03T01:05:03;3.00;75.90
3850;DHT22;1940;51.052;13.678;2023-04-03T01:07:30;3.10;76.00
3850;DHT22;1940;51.052;13.678;2023-04-03T01:09:58;2.90;75.80
3850;DHT22;1940;51.052;13.678;2023-04-03T01:12:29;2.90;76.00
3850;DHT22;1940;51.052;13.678;2023-04-03T01:14:57;2.90;75.90
3850;DHT22;1940;51.052;13.678;2023-04-03T01:20:31;2.90;76.40
3850;DHT22;1940;51.052;13.678;2023-04-03T01:25:52;2.90;75.70
3850;DHT22;1940;51.052;13.678;2023-04-03T01:28:44;2.90;75.60
3850;DHT22;1940;51.052;13.678;2023-04-03T01:31:27;2.80;75.90
3850;DHT22;1940;51.052;13.678;2023-04-03T01:33:54;2.70;75.70
3850;DHT22;1940;51.052;13.678;2023-04-03T01:36:23;2.60;75.40
3850;DHT22;1940;51.052;13.678;2023-04-03T01:38:50;2.60;75.80
3850;DHT22;1940;51.052;13.678;2023-04-03T01:41:15;2.60;76.30
3850;DHT22;1940;51.052;13.678;2023-04-03T01:43:41;2.50;76.70
3850;DHT22;1940;51.052;13.678;2023-04-03T01:46:07;2.50;75.80
3850;DHT22;1940;51.052;13.678;2023-04-03T01:48:33;2.50;75.60
3850;DHT22;1940;51.052;13.678;2023-04-03T01:50:58;2.50;75.50
3850;DHT22;1940;51.052;13.678;2023-04-03T01:53:24;2.50;75.80
3850;DHT22;1940;51.052;13.678;2023-04-03T01:55:49;2.50;75.70
3850;DHT22;1940;51.052;13.678;2023-04-03T01:58:15;2.50;75.80
3850;DHT22;1940;51.052;13.678;2023-04-03T02:00:41;2.40;76.00
3850;DHT22;1940;51.052;13.678;2023-04-03T02:03:06;2.40;75.90
3850;DHT22;1940;51.052;13.678;2023-04-03T02:05:32;2.40;76.50
3850;DHT22;1940;51.052;13.678;2023-04-03T02:07:58;2.30;76.20
3850;DHT22;1940;51.052;13.678;2023-04-03T02:10:23;2.30;76.10
3850;DHT22;1940;51.052;13.678;2023-04-03T02:12:49;2.30;76.80
3850;DHT22;1940;51.052;13.678;2023-04-03T02:15:15;2.30;76.60
3850;DHT22;1940;51.052;13.678;2023-04-03T02:17:40;2.30;76.90
3850;DHT22;1940;51.052;13.678;2023-04-03T02:20:06;2.30;75.80
3850;DHT22;1940;51.052;13.678;2023-04-03T02:22:32;2.20;76.10
3850;DHT22;1940;51.052;13.678;2023-04-03T02:24:57;2.20;76.20
3850;DHT22;1940;51.052;13.678;2023-04-03T02:27:23;2.10;76.30
3850;DHT22;1940;51.052;13.678;2023-04-03T02:29:49;2.10;76.80
3850;DHT22;1940;51.052;13.678;2023-04-03T02:32:14;2.00;76.30
3850;DHT22;1940;51.052;13.678;2023-04-03T02:34:40;2.00;76.20
3850;DHT22;1940;51.052;13.678;2023-04-03T02:37:05;2.00;76.40
3850;DHT22;1940;51.052;13.678;2023-04-03T02:39:31;2.00;75.60
3850;DHT22;1940;51.052;13.678;2023-04-03T02:41:57;1.90;76.00
3850;DHT22;1940;51.052;13.678;2023-04-03T02:44:22;1.90;76.60
3850;DHT22;1940;51.052;13.678;2023-04-03T02:46:49;1.80;76.30
3850;DHT22;1940;51.052;13.678;2023-04-03T02:49:14;1.80;76.50
3850;DHT22;1940;51.052;13.678;2023-04-03T02:51:40;1.70;76.70
3850;DHT22;1940;51.052;13.678;2023-04-03T02:54:06;1.60;76.90
3850;DHT22;1940;51.052;13.678;2023-04-03T02:56:32;1.50;77.20
3850;DHT22;1940;51.052;13.678;2023-04-03T02:58:57;1.50;77.50
3850;DHT22;1940;51.052;13.678;2023-04-03T03:01:23;1.50;78.10
3850;DHT22;1940;51.052;13.678;2023-04-03T03:03:48;1.50;77.80
3850;DHT22;1940;51.052;13.678;2023-04-03T03:06:15;1.50;78.20
3850;DHT22;1940;51.052;13.678;2023-04-03T03:08:42;1.40;78.70
3850;DHT22;1940;51.052;13.678;2023-04-03T03:11:08;1.30;79.10
3850;DHT22;1940;51.052;13.678;2023-04-03T03:13:33;1.20;79.70
3850;DHT22;1940;51.052;13.678;2023-04-03T03:15:59;1.20;79.90
3850;DHT22;1940;51.052;13.678;2023-04-03T03:18:25;1.10;80.40
3850;DHT22;1940;51.052;13.678;2023-04-03T03:20:52;1.10;80.50
3850;DHT22;1940;51.052;13.678;2023-04-03T03:23:18;1.10;80.60
3850;DHT22;1940;51.052;13.678;2023-04-03T03:25:44;1.00;80.80
3850;DHT22;1940;51.052;13.678;2023-04-03T03:28:09;1.00;80.90
3850;DHT22;1940;51.052;13.678;2023-04-03T03:30:35;1.00;81.20
3850;DHT22;1940;51.052;13.678;2023-04-03T03:33:00;0.90;81.00
3850;DHT22;1940;51.052;13.678;2023-04-03T03:35:26;0.80;81.60
3850;DHT22;1940;51.052;13.678;2023-04-03T03:37:52;0.70;81.90
3850;DHT22;1940;51.052;13.678;2023-04-03T03:40:17;0.60;82.30
3850;DHT22;1940;51.052;13.678;2023-04-03T03:42:43;0.50;82.60
3850;DHT22;1940;51.052;13.678;2023-04-03T03:45:09;0.50;82.60
3850;DHT22;1940;51.052;13.678;2023-04-03T03:47:35;0.50;82.40
3850;DHT22;1940;51.052;13.678;2023-04-03T03:50:01;0.50;82.80
3850;DHT22;1940;51.052;13.678;2023-04-03T03:52:26;0.40;83.30
3850;DHT22;1940;51.052;13.678;2023-04-03T03:54:52;0.30;83.30
3850;DHT22;1940;51.052;13.678;2023-04-03T03:57:17;0.40;83.60
3850;DHT22;1940;51.052;13.678;2023-04-03T03:59:43;0.30;83.60
3850;DHT22;1940;51.052;13.678;2023-04-03T04:02:10;0.20;83.80
3850;DHT22;1940;51.052;13.678;2023-04-03T04:04:35;0.20;84.00
3850;DHT22;1940;51.052;13.678;2023-04-03T04:07:01;0.10;84.10
3850;DHT22;1940;51.052;13.678;2023-04-03T04:09:27;0.10;84.30
3850;DHT22;1940;51.052;13.678;2023-04-03T04:11:53;0.20;84.40
3850;DHT22;1940;51.052;13.678;2023-04-03T04:14:18;0.20;84.30
3850;DHT22;1940;51.052;13.678;2023-04-03T04:16:46;0.20;84.20
3850;DHT22;1940;51.052;13.678;2023-04-03T04:19:12;0.10;84.20
3850;DHT22;1940;51.052;13.678;2023-04-03T04:21:38;0.00;84.70
3850;DHT22;1940;51.052;13.678;2023-04-03T04:24:12;0.00;84.80
3850;DHT22;1940;51.052;13.678;2023-04-03T04:26:38;0.10;84.80
3850;DHT22;1940;51.052;13.678;2023-04-03T04:29:04;0.10;84.70
3850;DHT22;1940;51.052;13.678;2023-04-03T04:31:30;0.00;85.00
3850;DHT22;1940;51.052;13.678;2023-04-03T04:33:55;-0.10;85.10
3850;DHT22;1940;51.052;13.678;2023-04-03T04:36:21;-0.10;85.30
3850;DHT22;1940;51.052;13.678;2023-04-03T04:38:46;-0.10;85.30
3850;DHT22;1940;51.052;13.678;2023-04-03T04:41:12;-0.10;85.50
3850;DHT22;1940;51.052;13.678;2023-04-03T04:43:37;-0.10;85.50
3850;DHT22;1940;51.052;13.678;2023-04-03T04:46:08;-0.10;85.70
3850;DHT22;1940;51.052;13.678;2023-04-03T04:48:34;0.00;85.70
3850;DHT22;1940;51.052;13.678;2023-04-03T04:51:00;0.00;85.40
3850;DHT22;1940;51.052;13.678;2023-04-03T04:53:25;-0.10;85.50
3850;DHT22;1940;51.052;13.678;2023-04-03T04:55:52;-0.20;85.40
3850;DHT22;1940;51.052;13.678;2023-04-03T04:58:18;-0.20;85.60
3850;DHT22;1940;51.052;13.678;2023-04-03T05:00:44;-0.10;85.80
3850;DHT22;1940;51.052;13.678;2023-04-03T05:03:09;-0.10;85.80
3850;DHT22;1940;51.052;13.678;2023-04-03T05:05:35;0.00;85.60
3850;DHT22;1940;51.052;13.678;2023-04-03T05:08:01;0.20;85.40
3850;DHT22;1940;51.052;13.678;2023-04-03T05:10:27;0.20;85.10
3850;DHT22;1940;51.052;13.678;2023-04-03T05:12:53;0.50;85.00
3850;DHT22;1940;51.052;13.678;2023-04-03T05:15:19;1.10;83.50
3850;DHT22;1940;51.052;13.678;2023-04-03T05:17:45;1.60;81.80
3850;DHT22;1940;51.052;13.678;2023-04-03T05:20:10;2.10;80.30
3850;DHT22;1940;51.052;13.678;2023-04-03T05:22:36;2.30;79.30
3850;DHT22;1940;51.052;13.678;2023-04-03T05:25:02;2.00;78.90
3850;DHT22;1940;51.052;13.678;2023-04-03T05:27:27;1.90;79.20
3850;DHT22;1940;51.052;13.678;2023-04-03T05:29:54;1.60;79.60
3850;DHT22;1940;51.052;13.678;2023-04-03T05:32:20;1.60;79.60
3850;DHT22;1940;51.052;13.678;2023-04-03T05:34:45;1.30;79.50
3850;DHT22;1940;51.052;13.678;2023-04-03T05:37:11;1.30;80.00
3850;DHT22;1940;51.052;13.678;2023-04-03T05:39:37;1.20;80.30
3850;DHT22;1940;51.052;13.678;2023-04-03T05:42:05;1.10;81.00
3850;DHT22;1940;51.052;13.678;2023-04-03T05:44:31;1.20;80.90
3850;DHT22;1940;51.052;13.678;2023-04-03T05:46:56;1.20;80.60
3850;DHT22;1940;51.052;13.678;2023-04-03T05:49:22;1.10;81.00
3850;DHT22;1940;51.052;13.678;2023-04-03T05:51:47;1.30;81.10
3850;DHT22;1940;51.052;13.678;2023-04-03T05:54:17;1.20;80.70
3850;DHT22;1940;51.052;13.678;2023-04-03T05:56:43;1.00;80.70
3850;DHT22;1940;51.052;13.678;2023-04-03T05:59:09;1.10;81.00
3850;DHT22;1940;51.052;13.678;2023-04-03T06:01:35;1.10;80.70
3850;DHT22;1940;51.052;13.678;2023-04-03T06:04:00;1.20;81.00
3850;DHT22;1940;51.052;13.678;2023-04-03T06:06:26;1.10;81.20
3850;DHT22;1940;51.052;13.678;2023-04-03T06:08:51;1.20;80.80
3850;DHT22;1940;51.052;13.678;2023-04-03T06:11:17;1.20;80.90
3850;DHT22;1940;51.052;13.678;2023-04-03T06:13:43;1.20;80.50
3850;DHT22;1940;51.052;13.678;2023-04-03T06:16:15;1.20;80.20
3850;DHT22;1940;51.052;13.678;2023-04-03T06:18:42;1.20;80.10
3850;DHT22;1940;51.052;13.678;2023-04-03T06:21:08;1.10;80.20
3850;DHT22;1940;51.052;13.678;2023-04-03T06:23:33;1.10;80.90
3850;DHT22;1940;51.052;13.678;2023-04-03T06:25:59;1.00;81.20
3850;DHT22;1940;51.052;13.678;2023-04-03T06:28:25;0.90;81.80
3850;DHT22;1940;51.052;13.678;2023-04-03T06:30:51;0.90;81.50
3850;DHT22;1940;51.052;13.678;2023-04-03T06:33:16;0.90;81.50
3850;DHT22;1940;51.052;13.678;2023-04-03T06:35:42;1.00;81.20
3850;DHT22;1940;51.052;13.678;2023-04-03T06:38:08;1.10;81.00
3850;DHT22;1940;51.052;13.678;2023-04-03T06:40:35;1.10;80.90
3850;DHT22;1940;51.052;13.678;2023-04-03T06:43:01;1.10;80.90
3850;DHT22;1940;51.052;13.678;2023-04-03T06:45:26;1.10;81.20
3850;DHT22;1940;51.052;13.678;2023-04-03T06:47:53;1.00;81.70
3850;DHT22;1940;51.052;13.678;2023-04-03T06:50:19;0.90;82.10
3850;DHT22;1940;51.052;13.678;2023-04-03T06:52:45;1.00;83.00
3850;DHT22;1940;51.052;13.678;2023-04-03T06:55:10;1.00;82.70
3850;DHT22;1940;51.052;13.678;2023-04-03T06:57:36;1.00;82.10
3850;DHT22;1940;51.052;13.678;2023-04-03T07:00:03;1.00;81.80
3850;DHT22;1940;51.052;13.678;2023-04-03T07:02:30;1.10;82.10
3850;DHT22;1940;51.052;13.678;2023-04-03T07:04:56;1.10;81.10
3850;DHT22;1940;51.052;13.678;2023-04-03T07:07:21;1.10;80.50
3850;DHT22;1940;51.052;13.678;2023-04-03T07:09:47;1.10;80.40
3850;DHT22;1940;51.052;13.678;2023-04-03T07:12:13;1.20;80.70
3850;DHT22;1940;51.052;13.678;2023-04-03T07:14:39;1.20;80.80
3850;DHT22;1940;51.052;13.678;2023-04-03T07:17:04;1.20;81.20
3850;DHT22;1940;51.052;13.678;2023-04-03T07:19:30;1.30;81.20
3850;DHT22;1940;51.052;13.678;2023-04-03T07:21:56;1.40;81.00
3850;DHT22;1940;51.052;13.678;2023-04-03T07:24:22;1.40;80.00
3850;DHT22;1940;51.052;13.678;2023-04-03T07:26:51;1.40;79.70
3850;DHT22;1940;51.052;13.678;2023-04-03T07:29:17;1.40;79.80
3850;DHT22;1940;51.052;13.678;2023-04-03T07:31:42;1.30;79.30
3850;DHT22;1940;51.052;13.678;2023-04-03T07:34:10;1.30;79.50
3850;DHT22;1940;51.052;13.678;2023-04-03T07:36:36;1.30;79.10
3850;DHT22;1940;51.052;13.678;2023-04-03T07:39:01;1.40;78.90
3850;DHT22;1940;51.052;13.678;2023-04-03T07:41:27;1.30;79.30
3850;DHT22;1940;51.052;13.678;2023-04-03T07:43:54;1.30;79.60
3850;DHT22;1940;51.052;13.678;2023-04-03T07:46:20;1.50;79.50
3850;DHT22;1940;51.052;13.678;2023-04-03T07:48:46;1.50;79.30
3850;DHT22;1940;51.052;13.678;2023-04-03T07:51:11;1.60;79.20
3850;DHT22;1940;51.052;13.678;2023-04-03T07:53:38;1.60;78.50
3850;DHT22;1940;51.052;13.678;2023-04-03T07:56:03;1.60;78.50
3850;DHT22;1940;51.052;13.678;2023-04-03T07:58:29;1.80;78.80
3850;DHT22;1940;51.052;13.678;2023-04-03T08:00:55;2.00;78.20
3850;DHT22;1940;51.052;13.678;2023-04-03T08:03:21;2.10;77.80
3850;DHT22;1940;51.052;13.678;2023-04-03T08:05:48;2.20;77.50
3850;DHT22;1940;51.052;13.678;2023-04-03T08:08:17;2.20;77.50
3850;DHT22;1940;51.052;13.678;2023-04-03T08:10:43;2.20;77.90
3850;DHT22;1940;51.052;13.678;2023-04-03T08:13:09;2.30;78.10
3850;DHT22;1940;51.052;13.678;2023-04-03T08:15:35;2.30;77.10
3850;DHT22;1940;51.052;13.678;2023-04-03T08:18:01;2.40;77.30
3850;DHT22;1940;51.052;13.678;2023-04-03T08:20:28;2.60;76.90
3850;DHT22;1940;51.052;13.678;2023-04-03T08:22:54;2.80;76.70
3850;DHT22;1940;51.052;13.678;2023-04-03T08:25:19;3.10;75.60
3850;DHT22;1940;51.052;13.678;2023-04-03T08:27:45;3.10;74.50
3850;DHT22;1940;51.052;13.678;2023-04-03T08:30:11;3.00;73.80
3850;DHT22;1940;51.052;13.678;2023-04-03T08:32:37;3.00;74.00
3850;DHT22;1940;51.052;13.678;2023-04-03T08:35:04;3.00;74.20
3850;DHT22;1940;51.052;13.678;2023-04-03T08:37:30;2.90;75.00
3850;DHT22;1940;51.052;13.678;2023-04-03T08:39:56;3.00;75.00
3850;DHT22;1940;51.052;13.678;2023-04-03T08:48:06;3.20;73.00
3850;DHT22;1940;51.052;13.678;2023-04-03T08:50:40;3.20;73.60
3850;DHT22;1940;51.052;13.678;2023-04-03T08:53:29;3.10;73.30
3850;DHT22;1940;51.052;13.678;2023-04-03T08:55:58;3.10;73.50
3850;DHT22;1940;51.052;13.678;2023-04-03T08:58:30;3.20;73.80
3850;DHT22;1940;51.052;13.678;2023-04-03T09:01:26;3.40;73.30
3850;DHT22;1940;51.052;13.678;2023-04-03T09:03:53;3.50;72.90
3850;DHT22;1940;51.052;13.678;2023-04-03T09:06:22;3.60;73.40
3850;DHT22;1940;51.052;13.678;2023-04-03T09:14:30;3.70;72.30
3850;DHT22;1940;51.052;13.678;2023-04-03T09:17:02;3.70;72.40
3850;DHT22;1940;51.052;13.678;2023-04-03T09:22:17;3.90;72.10
3850;DHT22;1940;51.052;13.678;2023-04-03T09:24:47;4.20;71.30
3850;DHT22;1940;51.052;13.678;2023-04-03T09:27:15;4.40;70.10
3850;DHT22;1940;51.052;13.678;2023-04-03T09:29:43;4.80;69.80
3850;DHT22;1940;51.052;13.678;2023-04-03T09:32:30;5.60;67.70
3850;DHT22;1940;51.052;13.678;2023-04-03T09:34:59;6.20;65.10
3850;DHT22;1940;51.052;13.678;2023-04-03T09:40:02;6.70;63.40
3850;DHT22;1940;51.052;13.678;2023-04-03T09:42:30;6.60;64.10
3850;DHT22;1940;51.052;13.678;2023-04-03T09:45:01;7.00;64.00
3850;DHT22;1940;51.052;13.678;2023-04-03T09:47:29;7.40;62.90
3850;DHT22;1940;51.052;13.678;2023-04-03T09:52:40;7.70;62.00
3850;DHT22;1940;51.052;13.678;2023-04-03T09:55:17;7.30;60.20
3850;DHT22;1940;51.052;13.678;2023-04-03T09:57:44;8.30;58.30
3850;DHT22;1940;51.052;13.678;2023-04-03T10:00:25;9.80;57.10
3850;DHT22;1940;51.052;13.678;2023-04-03T10:02:54;10.80;53.60
3850;DHT22;1940;51.052;13.678;2023-04-03T10:05:31;10.30;53.60
3850;DHT22;1940;51.052;13.678;2023-04-03T10:10:43;7.40;59.90
3850;DHT22;1940;51.052;13.678;2023-04-03T10:13:20;6.80;61.30
3850;DHT22;1940;51.052;13.678;2023-04-03T10:16:11;6.80;62.40
3850;DHT22;1940;51.052;13.678;2023-04-03T10:18:44;6.70;62.90
3850;DHT22;1940;51.052;13.678;2023-04-03T10:23:53;6.70;61.10
3850;DHT22;1940;51.052;13.678;2023-04-03T10:26:32;8.10;58.40
3850;DHT22;1940;51.052;13.678;2023-04-03T10:29:25;8.80;55.90
3850;DHT22;1940;51.052;13.678;2023-04-03T10:32:15;8.90;54.50
3850;DHT22;1940;51.052;13.678;2023-04-03T10:34:46;8.30;55.70
3850;DHT22;1940;51.052;13.678;2023-04-03T10:37:20;7.20;57.60
3850;DHT22;1940;51.052;13.678;2023-04-03T10:40:01;6.90;59.50
3850;DHT22;1940;51.052;13.678;2023-04-03T10:43:02;7.80;60.40
3850;DHT22;1940;51.052;13.678;2023-04-03T10:45:48;8.10;56.50
3850;DHT22;1940;51.052;13.678;2023-04-03T10:56:42;6.20;58.30
3850;DHT22;1940;51.052;13.678;2023-04-03T10:59:34;6.10;57.70
3850;DHT22;1940;51.052;13.678;2023-04-03T11:02:25;6.30;57.30
3850;DHT22;1940;51.052;13.678;2023-04-03T11:05:01;6.30;57.50
3850;DHT22;1940;51.052;13.678;2023-04-03T11:07:32;6.10;56.40
3850;DHT22;1940;51.052;13.678;2023-04-03T11:10:18;6.10;57.10
3850;DHT22;1940;51.052;13.678;2023-04-03T11:12:59;5.90;56.80
3850;DHT22;1940;51.052;13.678;2023-04-03T11:15:29;5.80;56.30
3850;DHT22;1940;51.052;13.678;2023-04-03T11:17:58;5.70;56.10
3850;DHT22;1940;51.052;13.678;2023-04-03T11:20:31;5.60;56.70
3850;DHT22;1940;51.052;13.678;2023-04-03T11:23:24;5.80;57.40
3850;DHT22;1940;51.052;13.678;2023-04-03T11:25:53;5.80;57.10
3850;DHT22;1940;51.052;13.678;2023-04-03T11:28:21;5.90;58.00
3850;DHT22;1940;51.052;13.678;2023-04-03T11:31:29;5.90;58.60
3850;DHT22;1940;51.052;13.678;2023-04-03T11:36:56;6.20;57.90
3850;DHT22;1940;51.052;13.678;2023-04-03T11:39:26;6.50;55.80
3850;DHT22;1940;51.052;13.678;2023-04-03T11:41:54;6.60;56.30
3850;DHT22;1940;51.052;13.678;2023-04-03T11:44:36;6.40;55.70
3850;DHT22;1940;51.052;13.678;2023-04-03T11:47:03;6.30;56.40
3850;DHT22;1940;51.052;13.678;2023-04-03T11:50:01;6.40;56.60
3850;DHT22;1940;51.052;13.678;2023-04-03T12:16:05;5.70;57.50
3850;DHT22;1940;51.052;13.678;2023-04-03T12:32:17;6.30;57.10
3850;DHT22;1940;51.052;13.678;2023-04-03T12:35:10;6.00;58.20
3850;DHT22;1940;51.052;13.678;2023-04-03T12:37:39;5.90;58.80
3850;DHT22;1940;51.052;13.678;2023-04-03T12:40:43;5.70;58.00
3850;DHT22;1940;51.052;13.678;2023-04-03T12:46:21;5.80;56.80
3850;DHT22;1940;51.052;13.678;2023-04-03T12:48:57;5.90;57.70
3850;DHT22;1940;51.052;13.678;2023-04-03T12:51:40;5.90;56.90
3850;DHT22;1940;51.052;13.678;2023-04-03T12:54:19;5.70;57.10
3850;DHT22;1940;51.052;13.678;2023-04-03T12:56:47;5.60;58.10
3850;DHT22;1940;51.052;13.678;2023-04-03T12:59:21;5.40;58.10
3850;DHT22;1940;51.052;13.678;2023-04-03T13:02:00;5.40;58.50
3850;DHT22;1940;51.052;13.678;2023-04-03T13:04:31;5.40;58.60
3850;DHT22;1940;51.052;13.678;2023-04-03T13:06:57;5.40;59.40
3850;DHT22;1940;51.052;13.678;2023-04-03T13:09:30;5.50;58.80
3850;DHT22;1940;51.052;13.678;2023-04-03T13:12:12;5.60;59.50
3850;DHT22;1940;51.052;13.678;2023-04-03T13:14:38;5.70;59.10
3850;DHT22;1940;51.052;13.678;2023-04-03T13:17:10;5.60;59.40
3850;DHT22;1940;51.052;13.678;2023-04-03T13:19:37;5.70;59.50
3850;DHT22;1940;51.052;13.678;2023-04-03T13:22:05;5.70;59.50
3850;DHT22;1940;51.052;13.678;2023-04-03T13:24:35;5.50;58.50
3850;DHT22;1940;51.052;13.678;2023-04-03T13:27:02;5.70;58.80
3850;DHT22;1940;51.052;13.678;2023-04-03T13:29:34;5.80;59.20
3850;DHT22;1940;51.052;13.678;2023-04-03T13:32:02;5.80;59.10
3850;DHT22;1940;51.052;13.678;2023-04-03T13:34:29;5.80;58.90
3850;DHT22;1940;51.052;13.678;2023-04-03T13:37:01;5.70;58.20
3850;DHT22;1940;51.052;13.678;2023-04-03T13:39:31;5.80;58.80
3850;DHT22;1940;51.052;13.678;2023-04-03T13:42:00;5.90;57.50
3850;DHT22;1940;51.052;13.678;2023-04-03T13:44:33;5.80;57.30
3850;DHT22;1940;51.052;13.678;2023-04-03T13:47:22;5.80;55.90
3850;DHT22;1940;51.052;13.678;2023-04-03T13:50:20;5.80;57.00
3850;DHT22;1940;51.052;13.678;2023-04-03T13:52:53;5.90;57.60
3850;DHT22;1940;51.052;13.678;2023-04-03T13:55:31;6.00;57.50
3850;DHT22;1940;51.052;13.678;2023-04-03T14:03:25;5.70;57.80
3850;DHT22;1940;51.052;13.678;2023-04-03T14:05:51;5.50;57.20
3850;DHT22;1940;51.052;13.678;2023-04-03T14:08:18;5.40;57.70
3850;DHT22;1940;51.052;13.678;2023-04-03T14:10:44;5.30;57.80
3850;DHT22;1940;51.052;13.678;2023-04-03T14:13:14;5.20;58.90
3850;DHT22;1940;51.052;13.678;2023-04-03T14:15:40;5.10;59.10
3850;DHT22;1940;51.052;13.678;2023-04-03T14:18:06;5.20;59.60
3850;DHT22;1940;51.052;13.678;2023-04-03T14:20:31;5.20;59.40
3850;DHT22;1940;51.052;13.678;2023-04-03T14:22:57;5.20;58.90
3850;DHT22;1940;51.052;13.678;2023-04-03T14:25:23;5.30;59.70
3850;DHT22;1940;51.052;13.678;2023-04-03T14:27:52;5.30;59.00
3850;DHT22;1940;51.052;13.678;2023-04-03T14:30:28;5.20;58.80
3850;DHT22;1940;51.052;13.678;2023-04-03T14:32:54;5.20;58.80
3850;DHT22;1940;51.052;13.678;2023-04-03T14:35:21;5.10;58.40
3850;DHT22;1940;51.052;13.678;2023-04-03T14:37:48;5.00;58.70
3850;DHT22;1940;51.052;13.678;2023-04-03T14:40:19;5.00;59.20
3850;DHT22;1940;51.052;13.678;2023-04-03T14:42:45;5.10;59.70
3850;DHT22;1940;51.052;13.678;2023-04-03T14:45:13;5.00;60.30
3850;DHT22;1940;51.052;13.678;2023-04-03T14:47:51;5.00;59.90
3850;DHT22;1940;51.052;13.678;2023-04-03T14:50:20;5.10;59.60
3850;DHT22;1940;51.052;13.678;2023-04-03T14:52:47;5.20;60.20
3850;DHT22;1940;51.052;13.678;2023-04-03T14:55:16;5.10;59.90
3850;DHT22;1940;51.052;13.678;2023-04-03T14:57:42;5.10;60.10
3850;DHT22;1940;51.052;13.678;2023-04-03T15:00:15;5.10;59.30
3850;DHT22;1940;51.052;13.678;2023-04-03T15:02:41;5.00;59.30
3850;DHT22;1940;51.052;13.678;2023-04-03T15:05:09;5.10;59.60
3850;DHT22;1940;51.052;13.678;2023-04-03T15:07:38;5.20;59.40
3850;DHT22;1940;51.052;13.678;2023-04-03T15:10:43;5.30;59.00
3850;DHT22;1940;51.052;13.678;2023-04-03T15:13:11;5.30;59.10
3850;DHT22;1940;51.052;13.678;2023-04-03T15:15:37;5.30;59.00
3850;DHT22;1940;51.052;13.678;2023-04-03T15:18:03;5.30;58.40
3850;DHT22;1940;51.052;13.678;2023-04-03T15:20:29;5.10;58.20
3850;DHT22;1940;51.052;13.678;2023-04-03T15:22:56;5.20;58.90
3850;DHT22;1940;51.052;13.678;2023-04-03T15:25:22;5.30;58.40
3850;DHT22;1940;51.052;13.678;2023-04-03T15:27:48;5.40;59.30
3850;DHT22;1940;51.052;13.678;2023-04-03T15:30:16;5.40;58.30
3850;DHT22;1940;51.052;13.678;2023-04-03T15:32:41;5.20;58.10
3850;DHT22;1940;51.052;13.678;2023-04-03T15:35:07;5.10;57.30
3850;DHT22;1940;51.052;13.678;2023-04-03T15:37:33;5.10;58.80
3850;DHT22;1940;51.052;13.678;2023-04-03T15:39:58;5.00;59.30
3850;DHT22;1940;51.052;13.678;2023-04-03T15:42:24;5.00;58.40
3850;DHT22;1940;51.052;13.678;2023-04-03T15:44:49;4.90;59.00
3850;DHT22;1940;51.052;13.678;2023-04-03T15:47:15;4.90;58.90
3850;DHT22;1940;51.052;13.678;2023-04-03T15:49:41;4.90;58.90
3850;DHT22;1940;51.052;13.678;2023-04-03T15:52:06;4.90;59.10
3850;DHT22;1940;51.052;13.678;2023-04-03T15:54:32;4.80;59.40
3850;DHT22;1940;51.052;13.678;2023-04-03T15:56:57;4.70;59.90
3850;DHT22;1940;51.052;13.678;2023-04-03T15:59:23;4.80;60.80
3850;DHT22;1940;51.052;13.678;2023-04-03T16:01:50;4.60;60.70
3850;DHT22;1940;51.052;13.678;2023-04-03T16:04:16;4.60;60.70
3850;DHT22;1940;51.052;13.678;2023-04-03T16:06:42;4.50;60.90
3850;DHT22;1940;51.052;13.678;2023-04-03T16:09:08;4.50;60.60
3850;DHT22;1940;51.052;13.678;2023-04-03T16:11:34;4.50;60.90
3850;DHT22;1940;51.052;13.678;2023-04-03T16:14:06;4.40;61.70
3850;DHT22;1940;51.052;13.678;2023-04-03T16:16:32;4.40;61.70
3850;DHT22;1940;51.052;13.678;2023-04-03T16:18:57;4.40;60.70
3850;DHT22;1940;51.052;13.678;2023-04-03T16:21:23;4.40;60.40
3850;DHT22;1940;51.052;13.678;2023-04-03T16:23:49;4.30;60.10
3850;DHT22;1940;51.052;13.678;2023-04-03T16:26:15;4.30;60.20
3850;DHT22;1940;51.052;13.678;2023-04-03T16:28:42;4.20;60.50
3850;DHT22;1940;51.052;13.678;2023-04-03T16:31:09;4.20;60.00
3850;DHT22;1940;51.052;13.678;2023-04-03T16:33:34;4.20;60.70
3850;DHT22;1940;51.052;13.678;2023-04-03T16:36:00;4.20;60.40
3850;DHT22;1940;51.052;13.678;2023-04-03T16:38:26;4.20;60.20
3850;DHT22;1940;51.052;13.678;2023-04-03T16:40:52;4.10;60.60
3850;DHT22;1940;51.052;13.678;2023-04-03T16:43:21;4.20;60.80
3850;DHT22;1940;51.052;13.678;2023-04-03T16:45:47;4.10;60.20
3850;DHT22;1940;51.052;13.678;2023-04-03T16:48:12;4.10;60.00
3850;DHT22;1940;51.052;13.678;2023-04-03T16:50:39;4.10;59.80
3850;DHT22;1940;51.052;13.678;2023-04-03T16:53:06;4.10;60.50
3850;DHT22;1940;51.052;13.678;2023-04-03T16:55:35;4.00;59.00
3850;DHT22;1940;51.052;13.678;2023-04-03T16:58:01;4.00;59.80
3850;DHT22;1940;51.052;13.678;2023-04-03T17:00:29;4.00;60.00
3850;DHT22;1940;51.052;13.678;2023-04-03T17:02:55;4.00;60.00
3850;DHT22;1940;51.052;13.678;2023-04-03T17:05:20;3.90;59.70
3850;DHT22;1940;51.052;13.678;2023-04-03T17:07:46;3.90;60.00
3850;DHT22;1940;51.052;13.678;2023-04-03T17:10:12;3.80;59.90
3850;DHT22;1940;51.052;13.678;2023-04-03T17:12:38;3.80;59.90
3850;DHT22;1940;51.052;13.678;2023-04-03T17:15:04;3.80;60.30
3850;DHT22;1940;51.052;13.678;2023-04-03T17:17:29;3.80;59.60
3850;DHT22;1940;51.052;13.678;2023-04-03T17:19:56;3.70;59.60
3850;DHT22;1940;51.052;13.678;2023-04-03T17:22:21;3.70;59.40
3850;DHT22;1940;51.052;13.678;2023-04-03T17:24:47;3.70;59.80
3850;DHT22;1940;51.052;13.678;2023-04-03T17:27:12;3.70;60.30
3850;DHT22;1940;51.052;13.678;2023-04-03T17:29:38;3.60;59.50
3850;DHT22;1940;51.052;13.678;2023-04-03T17:32:06;3.50;59.30
3850;DHT22;1940;51.052;13.678;2023-04-03T17:34:32;3.30;59.80
3850;DHT22;1940;51.052;13.678;2023-04-03T17:36:58;3.30;59.90
3850;DHT22;1940;51.052;13.678;2023-04-03T17:42:45;3.10;60.50
3850;DHT22;1940;51.052;13.678;2023-04-03T17:45:11;3.00;60.30